createdAt,value
2023-04-27T00:12:17.797Z,6.52
2023-04-27T00:32:17.748Z,6.61
2023-04-27T00:52:17.734Z,6.62
2023-04-27T01:12:17.745Z,6.74
2023-04-27T01:32:17.742Z,6.75
2023-04-27T01:52:17.734Z,6.76
2023-04-27T02:12:17.731Z,6.70
2023-04-27T02:32:17.719Z,6.34
2023-04-27T02:52:17.713Z,5.93
2023-04-27T03:12:17.720Z,5.38
2023-04-27T03:32:17.705Z,5.03
2023-04-27T03:52:17.718Z,5.05
2023-04-27T04:12:17.712Z,4.81
2023-04-27T04:32:17.713Z,5.07
2023-04-27T04:52:17.706Z,5.67
2023-04-27T05:12:17.708Z,6.16
2023-04-27T05:32:17.711Z,6.43
2023-04-27T05:52:17.709Z,6.48
2023-04-27T06:12:17.704Z,6.87
2023-04-27T06:32:17.705Z,7.45
2023-04-27T06:52:17.699Z,7.96
2023-04-27T07:12:17.735Z,8.86
2023-04-27T07:32:17.700Z,9.67
2023-04-27T07:52:17.821Z,10.44
2023-04-27T08:12:17.652Z,11.43
2023-04-27T08:32:17.597Z,11.89
2023-04-27T08:52:17.700Z,12.47
2023-04-27T09:12:17.621Z,12.87
2023-04-27T09:32:17.591Z,13.63
2023-04-27T09:52:17.596Z,14.27
2023-04-27T10:12:17.683Z,13.48
2023-04-27T10:32:17.512Z,13.87
2023-04-27T10:52:17.501Z,13.63
2023-04-27T11:12:17.512Z,13.51
2023-04-27T11:32:17.497Z,14.73
2023-04-27T11:52:17.408Z,15.69
2023-04-27T12:12:17.457Z,15.73
2023-04-27T12:32:17.421Z,15.69
2023-04-27T12:52:17.408Z,15.97
2023-04-27T13:12:17.329Z,14.98
2023-04-27T13:32:17.318Z,17.11
2023-04-27T13:52:17.421Z,16.98
2023-04-27T14:12:17.266Z,16.48
2023-04-27T14:32:17.420Z,15.85
2023-04-27T14:52:17.267Z,16.52
2023-04-27T15:12:17.159Z,16.07
2023-04-27T15:32:17.169Z,16.28
2023-04-27T15:52:17.257Z,15.70
2023-04-27T16:12:17.184Z,15.44
2023-04-27T16:32:17.094Z,15.21
2023-04-27T16:52:17.087Z,14.90
2023-04-27T17:12:17.085Z,14.59
2023-04-27T17:32:17.094Z,13.99
2023-04-27T17:52:17.029Z,13.38
2023-04-27T18:12:17.048Z,12.78
2023-04-27T18:32:17.039Z,11.93
2023-04-27T18:52:17.093Z,11.04
2023-04-27T19:12:17.040Z,10.40
2023-04-27T19:32:16.935Z,10.02
2023-04-27T19:52:16.928Z,9.60
2023-04-27T20:12:16.937Z,9.30
2023-04-27T20:32:16.932Z,9.01
2023-04-27T20:52:16.944Z,8.81
2023-04-27T21:12:16.944Z,8.73
2023-04-27T21:32:16.844Z,8.35
2023-04-27T21:52:16.839Z,8.16
2023-04-27T22:12:16.839Z,8.09
2023-04-27T22:32:16.838Z,7.96
2023-04-27T22:52:16.839Z,7.84
2023-04-27T23:12:16.830Z,7.59
2023-04-27T23:32:16.839Z,7.67
2023-04-27T23:52:16.833Z,7.76
